Time;durP1;ratioP1;P1;durP2;ratioP2;P2;SDS_P1;SDS_P2;PMS_P1;PMS_P2;Temp;Humidity;BMP_temperature;BMP_pressure;BME280_temperature;BME280_humidity;BME280_pressure;Samples;Min_cycle;Max_cycle;Signal;HPM_P1;HPM_P2
2022/04/02 00:01:14;;;;;;;7.22;1.98;;;1.00;99.90;;;;;;5052246;28;20049;-78
2022/04/02 00:03:40;;;;;;;2.78;1.33;;;1.00;99.90;;;;;;5069093;28;20043;-82
2022/04/02 00:06:06;;;;;;;2.22;1.70;;;0.90;99.90;;;;;;5070354;28;20040;-78
2022/04/02 00:08:32;;;;;;;7.63;2.17;;;1.40;99.90;;;;;;5052029;28;20032;-82
2022/04/02 00:10:58;;;;;;;1.88;1.77;;;1.30;99.90;;;;;;5052419;28;20138;-85
2022/04/02 00:13:24;;;;;;;2.83;1.63;;;1.00;99.90;;;;;;5068683;28;20045;-87
2022/04/02 00:15:50;;;;;;;5.38;2.35;;;0.90;99.90;;;;;;5068485;28;20727;-78
2022/04/02 00:18:15;;;;;;;4.60;2.08;;;1.50;99.90;;;;;;5068521;28;20028;-86
2022/04/02 00:20:41;;;;;;;3.10;1.95;;;3.70;99.90;;;;;;5052690;28;20385;-87
2022/04/02 00:25:51;;;;;;;4.72;1.80;;;1.20;99.90;;;;;;5070115;28;20519;-84
2022/04/02 00:28:17;;;;;;;4.78;2.90;;;0.90;99.90;;;;;;5068794;28;20137;-83
2022/04/02 00:30:43;;;;;;;3.05;1.95;;;1.20;99.90;;;;;;5068067;28;20055;-84
2022/04/02 00:33:10;;;;;;;4.97;1.70;;;1.30;99.90;;;;;;5068883;28;20044;-85
2022/04/02 00:35:36;;;;;;;3.85;1.98;;;1.40;99.90;;;;;;5051941;28;20048;-81
2022/04/02 00:38:02;;;;;;;3.28;1.50;;;0.90;99.90;;;;;;5067509;28;20068;-85
2022/04/02 00:40:28;;;;;;;1.95;1.42;;;1.00;99.90;;;;;;5051819;28;20048;-76
2022/04/02 00:42:55;;;;;;;5.65;2.10;;;1.20;99.90;;;;;;5068225;28;20410;-87
2022/04/02 00:45:20;;;;;;;4.72;2.03;;;1.10;99.90;;;;;;5067758;28;20036;-83
2022/04/02 00:47:46;;;;;;;2.25;1.85;;;0.90;99.90;;;;;;5068289;28;20450;-77
2022/04/02 00:50:12;;;;;;;5.75;2.17;;;1.60;99.90;;;;;;5050764;28;20044;-77
2022/04/02 00:52:39;;;;;;;2.10;1.60;;;1.40;99.90;;;;;;5069392;28;20039;-84
2022/04/02 00:55:05;;;;;;;4.90;1.95;;;1.30;99.90;;;;;;5050903;28;20044;-78
2022/04/02 00:57:31;;;;;;;3.67;1.77;;;1.40;99.90;;;;;;5051007;28;20036;-82
2022/04/02 00:59:57;;;;;;;3.95;2.28;;;1.40;99.90;;;;;;5051247;28;20075;-75
2022/04/02 01:02:23;;;;;;;4.80;1.92;;;0.70;99.90;;;;;;5067350;28;20036;-77
2022/04/02 01:04:48;;;;;;;4.60;2.03;;;1.20;99.90;;;;;;5068645;28;20045;-86
2022/04/02 01:07:16;;;;;;;5.13;1.80;;;1.00;99.90;;;;;;5050568;28;20487;-83
2022/04/02 01:09:42;;;;;;;2.47;1.92;;;0.50;99.90;;;;;;5069628;28;20048;-81
2022/04/02 01:12:08;;;;;;;5.22;1.85;;;1.10;99.90;;;;;;5066895;28;20032;-78
2022/04/02 01:14:34;;;;;;;2.70;1.95;;;1.20;99.90;;;;;;5052024;28;20036;-78
2022/04/02 01:17:01;;;;;;;3.95;1.67;;;0.70;99.90;;;;;;5069940;28;20454;-82
2022/04/02 01:19:28;;;;;;;3.63;1.90;;;1.00;99.90;;;;;;5050642;28;20048;-75
2022/04/02 01:21:54;;;;;;;8.20;1.95;;;1.10;99.90;;;;;;5067381;28;20124;-80
2022/04/02 01:24:20;;;;;;;5.45;2.40;;;0.90;99.90;;;;;;5050683;28;20067;-76
2022/04/02 01:26:46;;;;;;;2.95;2.10;;;0.60;99.90;;;;;;5068009;28;20033;-75
2022/04/02 01:29:31;;;;;;;4.88;1.20;;;1.00;99.90;;;;;;5138482;27;20226;-85
2022/04/02 01:31:57;;;;;;;6.60;1.60;;;1.00;99.90;;;;;;5098429;28;20039;-75
2022/04/02 01:34:22;;;;;;;1.67;1.55;;;0.80;99.90;;;;;;5097627;28;20438;-82
2022/04/02 01:36:48;;;;;;;4.28;1.83;;;1.10;99.90;;;;;;5078691;28;20561;-85
2022/04/02 01:39:14;;;;;;;4.40;1.88;;;1.00;99.90;;;;;;5078760;28;20079;-81
2022/04/02 01:41:40;;;;;;;3.22;1.83;;;0.70;99.90;;;;;;5099252;28;20114;-77
2022/04/02 01:44:06;;;;;;;4.40;1.92;;;0.70;99.90;;;;;;5081801;28;20467;-84
2022/04/02 01:46:31;;;;;;;5.38;1.95;;;1.00;99.90;;;;;;5078901;28;20047;-85
2022/04/02 01:48:57;;;;;;;6.60;2.10;;;1.10;99.90;;;;;;5095177;28;20065;-83
2022/04/02 01:51:23;;;;;;;4.47;1.92;;;0.50;99.90;;;;;;5097271;28;20119;-86
2022/04/02 01:53:48;;;;;;;5.07;1.90;;;0.40;99.90;;;;;;5116482;28;20399;-83
2022/04/02 01:56:14;;;;;;;6.18;2.30;;;0.80;99.90;;;;;;5098866;28;20483;-78
2022/04/02 01:58:40;;;;;;;3.78;2.63;;;1.60;99.90;;;;;;5095642;28;20047;-81
2022/04/02 02:01:06;;;;;;;5.68;2.50;;;0.80;99.90;;;;;;5077281;28;20093;-82
2022/04/02 02:03:32;;;;;;;6.50;2.10;;;0.90;99.90;;;;;;5080675;28;20096;-80
2022/04/02 02:05:57;;;;;;;2.10;1.90;;;0.90;99.90;;;;;;5081858;28;20035;-76
2022/04/02 02:08:23;;;;;;;4.20;1.60;;;2.70;99.90;;;;;;5080441;28;20046;-86
2022/04/02 02:10:49;;;;;;;4.05;1.90;;;0.50;99.90;;;;;;5077976;28;20576;-83
2022/04/02 02:13:15;;;;;;;4.97;2.28;;;0.20;99.90;;;;;;5078035;28;20036;-84
2022/04/02 02:15:40;;;;;;;3.75;1.88;;;0.90;99.90;;;;;;5081243;28;20048;-77
2022/04/02 02:18:06;;;;;;;3.92;1.88;;;0.90;99.90;;;;;;5116606;28;20475;-78
2022/04/02 02:20:32;;;;;;;4.43;2.10;;;0.70;99.90;;;;;;5079425;28;20251;-86
2022/04/02 02:22:58;;;;;;;2.83;1.73;;;2.20;99.90;;;;;;5093454;28;20044;-77
2022/04/02 02:25:24;;;;;;;2.28;1.75;;;1.00;99.90;;;;;;5096677;28;20395;-76
2022/04/02 02:27:50;;;;;;;3.90;1.80;;;1.00;99.90;;;;;;5100667;28;20059;-81
2022/04/02 02:30:17;;;;;;;5.15;3.47;;;0.80;99.90;;;;;;5105892;28;20499;-82
2022/04/02 02:32:44;;;;;;;4.13;2.00;;;1.00;99.90;;;;;;5086150;28;20592;-81
2022/04/02 02:38:01;;;;;;;2.88;2.17;;;0.90;99.90;;;;;;5113009;28;20044;-76
2022/04/02 02:40:27;;;;;;;4.03;1.98;;;0.80;99.90;;;;;;5102770;28;20040;-86
2022/04/02 02:42:53;;;;;;;4.70;1.70;;;0.80;99.90;;;;;;5101734;28;20037;-77
2022/04/02 02:45:18;;;;;;;3.95;1.92;;;0.40;99.90;;;;;;5092301;28;20120;-84
2022/04/02 02:47:44;;;;;;;2.60;2.05;;;1.20;99.90;;;;;;5099495;28;20373;-76
2022/04/02 02:50:09;;;;;;;6.88;1.85;;;0.60;99.90;;;;;;5098826;28;20044;-79
2022/04/02 02:52:35;;;;;;;6.65;2.50;;;0.50;99.90;;;;;;5092252;28;20139;-84
2022/04/02 02:55:00;;;;;;;5.88;1.85;;;-0.60;99.90;;;;;;5075693;28;20081;-84
2022/04/02 02:57:26;;;;;;;4.13;2.08;;;0.30;99.90;;;;;;5090825;28;20043;-87
2022/04/02 02:59:51;;;;;;;4.85;2.20;;;0.20;99.90;;;;;;5089202;28;20101;-87
2022/04/02 03:02:17;;;;;;;2.67;1.58;;;3.10;99.90;;;;;;5088632;28;20459;-84
2022/04/02 03:04:43;;;;;;;3.33;1.67;;;0.60;99.90;;;;;;5075532;28;20043;-84
2022/04/02 03:07:09;;;;;;;5.70;1.90;;;0.70;99.90;;;;;;5092832;28;20111;-80
2022/04/02 03:09:34;;;;;;;6.97;1.85;;;0.70;99.90;;;;;;5100347;28;20043;-86
2022/04/02 03:12:00;;;;;;;7.07;1.90;;;1.10;99.90;;;;;;5097560;28;20374;-77
2022/04/02 03:14:26;;;;;;;5.85;2.00;;;0.20;99.90;;;;;;5090940;28;20058;-86
2022/04/02 03:16:51;;;;;;;3.05;1.92;;;1.80;99.90;;;;;;5093841;28;20036;-81
2022/04/02 03:19:17;;;;;;;5.22;1.90;;;0.60;99.90;;;;;;5075492;28;20042;-79
2022/04/02 03:21:42;;;;;;;3.70;1.83;;;1.50;99.90;;;;;;5072177;28;20036;-80
2022/04/02 03:24:08;;;;;;;4.20;2.17;;;0.10;99.90;;;;;;5098199;28;20067;-75
2022/04/02 03:26:34;;;;;;;7.15;2.08;;;0.50;99.90;;;;;;5073855;28;20051;-78
2022/04/02 03:29:00;;;;;;;5.93;1.80;;;0.10;99.90;;;;;;5062867;28;20056;-83
2022/04/02 03:31:25;;;;;;;6.95;2.45;;;0.60;99.90;;;;;;5062845;28;20044;-83
2022/04/02 03:33:51;;;;;;;2.92;1.60;;;0.40;99.90;;;;;;5059646;28;20044;-77
2022/04/02 03:36:17;;;;;;;2.72;1.65;;;0.60;99.90;;;;;;5077263;28;20045;-85
2022/04/02 03:38:43;;;;;;;2.63;1.60;;;0.60;99.90;;;;;;5080529;28;20046;-81
2022/04/02 03:41:09;;;;;;;6.00;2.17;;;;;;;;;;5046423;28;20044;-78
2022/04/02 03:43:35;;;;;;;4.32;1.55;;;;;;;;;;5078379;28;20043;-84
2022/04/02 03:48:45;;;;;;;5.05;1.58;;;0.40;99.90;;;;;;5081744;28;20055;-76
2022/04/02 03:51:11;;;;;;;1.80;1.38;;;0.10;99.90;;;;;;5080541;28;20040;-86
2022/04/02 03:53:37;;;;;;;5.22;2.08;;;0.10;99.90;;;;;;5076939;28;20047;-81
2022/04/02 03:56:03;;;;;;;4.53;1.85;;;0.10;99.90;;;;;;5060074;28;20084;-80
2022/04/02 03:58:31;;;;;;;5.93;1.90;;;0.60;99.90;;;;;;5077885;28;20493;-86
2022/04/02 04:00:57;;;;;;;6.75;1.58;;;0.00;99.90;;;;;;5061943;28;20035;-77
2022/04/02 04:03:23;;;;;;;4.53;1.25;;;0.50;99.90;;;;;;5081180;28;20048;-79
2022/04/02 04:05:49;;;;;;;3.28;1.42;;;0.00;99.90;;;;;;5059598;28;20040;-85
2022/04/02 04:08:14;;;;;;;4.00;1.38;;;0.40;99.90;;;;;;5058853;28;20052;-76
2022/04/02 04:10:41;;;;;;;2.55;1.52;;;0.50;99.90;;;;;;5080472;28;20041;-76
2022/04/02 04:13:07;;;;;;;2.25;1.30;;;0.20;99.90;;;;;;5062660;28;20472;-80
2022/04/02 04:15:33;;;;;;;2.95;1.20;;;0.10;99.90;;;;;;5060962;28;20047;-81
2022/04/02 04:17:59;;;;;;;3.80;1.25;;;0.00;99.90;;;;;;5075818;28;20033;-88
2022/04/02 04:20:25;;;;;;;2.58;1.25;;;0.40;99.90;;;;;;5078161;28;20056;-80
2022/04/02 04:22:52;;;;;;;2.20;0.77;;;0.00;99.90;;;;;;5061897;28;20177;-76
2022/04/02 04:25:17;;;;;;;2.88;0.98;;;0.40;99.90;;;;;;5080155;28;20055;-87
2022/04/02 04:27:43;;;;;;;2.22;0.93;;;0.80;99.90;;;;;;5059879;28;20053;-83
2022/04/02 04:30:09;;;;;;;6.82;1.00;;;1.00;99.90;;;;;;5076362;28;20137;-87
2022/04/02 04:32:35;;;;;;;3.05;1.45;;;0.40;99.90;;;;;;5077107;28;20143;-77
2022/04/02 04:35:02;;;;;;;5.03;1.60;;;0.30;99.90;;;;;;5079234;28;20111;-86
2022/04/02 04:37:28;;;;;;;2.65;1.30;;;1.90;99.90;;;;;;5080184;28;20049;-84
2022/04/02 04:39:53;;;;;;;1.50;0.85;;;2.40;99.90;;;;;;5076144;28;20044;-79
2022/04/02 04:42:21;;;;;;;0.80;0.68;;;0.40;99.90;;;;;;5058425;28;20405;-85
2022/04/02 04:44:47;;;;;;;2.55;0.80;;;0.70;99.90;;;;;;5080397;28;20131;-78
2022/04/02 04:47:13;;;;;;;1.50;0.88;;;0.00;99.90;;;;;;5079133;28;20523;-88
2022/04/02 04:49:39;;;;;;;4.72;0.80;;;1.00;99.90;;;;;;5060361;28;20502;-81
2022/04/02 04:52:05;;;;;;;3.17;1.05;;;0.30;99.90;;;;;;5075168;28;20044;-80
2022/04/02 04:54:30;;;;;;;3.13;1.08;;;0.30;99.90;;;;;;5076278;28;20044;-88
2022/04/02 04:56:56;;;;;;;5.20;0.82;;;;;;;;;;5062257;28;20055;-83
2022/04/02 04:59:22;;;;;;;5.93;1.88;;;0.80;99.90;;;;;;5062715;28;20511;-87
2022/04/02 05:01:47;;;;;;;3.80;1.02;;;0.00;99.90;;;;;;5075037;28;20044;-78
2022/04/02 05:04:13;;;;;;;1.48;1.05;;;0.40;99.90;;;;;;5041624;28;20045;-86
2022/04/02 05:06:40;;;;;;;4.47;0.80;;;0.30;99.90;;;;;;5078799;28;20041;-86
2022/04/02 05:09:05;;;;;;;3.42;1.10;;;0.50;99.90;;;;;;5061817;28;20032;-87
2022/04/02 05:11:32;;;;;;;2.60;0.70;;;0.30;99.90;;;;;;5077795;28;20040;-76
2022/04/02 05:13:57;;;;;;;4.28;1.20;;;0.80;99.90;;;;;;5075397;28;20562;-81
2022/04/02 05:16:24;;;;;;;1.77;1.13;;;-0.10;99.90;;;;;;5076639;28;20140;-85
2022/04/02 05:18:50;;;;;;;4.18;1.60;;;0.70;99.90;;;;;;5078678;28;20127;-87
2022/04/02 05:21:16;;;;;;;4.28;1.83;;;0.00;99.90;;;;;;5079854;28;20032;-81
2022/04/02 05:23:42;;;;;;;2.22;1.20;;;0.90;99.90;;;;;;5078007;28;20553;-87
2022/04/02 05:26:08;;;;;;;6.28;1.55;;;1.70;99.90;;;;;;5074493;28;20082;-82
2022/04/02 05:28:34;;;;;;;4.57;1.52;;;0.50;99.90;;;;;;5059365;28;20508;-81
2022/04/02 05:30:59;;;;;;;2.25;1.35;;;0.90;99.90;;;;;;5061214;28;20044;-77
2022/04/02 05:33:25;;;;;;;1.83;1.27;;;0.20;99.90;;;;;;5061180;28;20078;-79
2022/04/02 05:35:50;;;;;;;3.22;1.38;;;0.60;99.90;;;;;;5075454;28;20097;-80
2022/04/02 05:38:16;;;;;;;3.67;1.30;;;2.90;99.90;;;;;;5076509;28;20044;-79
2022/04/02 05:40:42;;;;;;;6.20;1.67;;;0.90;99.90;;;;;;5059672;28;20606;-87
2022/04/02 05:43:08;;;;;;;3.05;1.55;;;0.60;99.90;;;;;;5078047;28;20061;-77
2022/04/02 05:45:34;;;;;;;5.57;2.00;;;0.30;99.90;;;;;;5060573;28;20169;-86
2022/04/02 05:48:00;;;;;;;4.82;1.88;;;0.40;99.90;;;;;;5057696;28;20044;-84
2022/04/02 05:50:26;;;;;;;6.38;1.98;;;0.40;99.90;;;;;;5075529;28;20033;-77
2022/04/02 05:52:53;;;;;;;4.45;1.38;;;0.30;99.90;;;;;;5076922;28;20059;-86
2022/04/02 05:55:19;;;;;;;2.80;1.50;;;0.60;99.90;;;;;;5061651;28;20119;-84
2022/04/02 05:57:46;;;;;;;4.13;1.45;;;0.60;99.90;;;;;;5076506;28;20495;-85
2022/04/02 06:00:15;;;;;;;5.13;1.75;;;0.40;99.90;;;;;;5057658;28;20043;-78
2022/04/02 06:02:41;;;;;;;4.38;1.42;;;0.90;99.90;;;;;;5059140;28;20567;-82
2022/04/02 06:05:08;;;;;;;3.80;1.40;;;0.40;99.90;;;;;;5061826;28;20491;-84
2022/04/02 06:07:37;;;;;;;4.00;1.70;;;0.90;99.90;;;;;;5077409;28;20047;-80
2022/04/02 06:10:04;;;;;;;3.95;1.67;;;0.40;99.90;;;;;;5074742;28;20235;-80
2022/04/02 06:12:31;;;;;;;2.38;1.25;;;0.90;99.90;;;;;;5075723;28;20659;-86
2022/04/02 06:14:57;;;;;;;3.15;1.10;;;0.90;99.90;;;;;;5078900;28;20036;-76
2022/04/02 06:17:23;;;;;;;3.50;1.50;;;0.50;99.90;;;;;;5082152;28;20476;-77
2022/04/02 06:19:48;;;;;;;5.28;1.20;;;1.00;99.90;;;;;;5080164;28;20032;-86
2022/04/02 06:22:14;;;;;;;3.08;1.05;;;1.00;99.90;;;;;;5077805;28;20044;-77
2022/04/02 06:24:40;;;;;;;8.63;1.38;;;0.70;99.90;;;;;;5079693;28;20113;-85
2022/04/02 06:27:06;;;;;;;3.30;1.80;;;0.60;99.90;;;;;;5065550;28;20119;-85
2022/04/02 06:29:31;;;;;;;1.73;1.30;;;0.50;99.90;;;;;;5085017;28;20047;-79
2022/04/02 06:31:57;;;;;;;7.30;1.88;;;0.60;99.90;;;;;;5081349;28;20495;-78
2022/04/02 06:34:23;;;;;;;7.97;1.60;;;0.80;99.90;;;;;;5081629;28;20480;-85
2022/04/02 06:36:49;;;;;;;2.92;1.33;;;1.10;99.90;;;;;;5066324;28;20075;-83
2022/04/02 06:39:14;;;;;;;6.55;1.60;;;0.60;99.90;;;;;;5068265;28;20043;-82
2022/04/02 06:41:40;;;;;;;5.25;2.00;;;1.10;99.90;;;;;;5101755;28;20210;-81
2022/04/02 06:44:08;;;;;;;3.95;1.35;;;3.10;99.90;;;;;;5081217;28;20036;-84
2022/04/02 06:46:39;;;;;;;3.33;1.70;;;1.00;99.90;;;;;;5099914;28;20048;-80
2022/04/02 06:49:06;;;;;;;3.15;1.35;;;1.30;99.90;;;;;;5080513;28;20156;-84
2022/04/02 06:51:33;;;;;;;3.65;1.20;;;1.30;99.90;;;;;;5064742;28;20040;-80
2022/04/02 06:53:59;;;;;;;2.92;1.15;;;2.40;99.90;;;;;;5067268;28;20143;-83
2022/04/02 06:56:25;;;;;;;2.63;1.17;;;0.90;99.90;;;;;;5102449;28;20487;-85
2022/04/02 06:58:51;;;;;;;4.93;1.85;;;;;;;;;;5066089;28;20380;-84
2022/04/02 07:01:17;;;;;;;3.30;1.50;;;1.50;99.90;;;;;;5064553;28;20082;-84
2022/04/02 07:03:43;;;;;;;10.27;1.80;;;1.10;99.90;;;;;;5081207;28;20036;-85
2022/04/02 07:06:09;;;;;;;3.50;1.52;;;-0.40;99.90;;;;;;5067697;28;20044;-82
2022/04/02 07:08:37;;;;;;;6.68;1.60;;;1.10;99.90;;;;;;5067824;28;20054;-78
2022/04/02 07:11:03;;;;;;;4.22;1.38;;;1.50;99.90;;;;;;5080213;28;20043;-80
2022/04/02 07:13:29;;;;;;;6.63;1.20;;;1.10;99.90;;;;;;5064273;28;20407;-83
2022/04/02 07:15:56;;;;;;;4.82;1.88;;;1.70;99.90;;;;;;5082942;28;20047;-77
2022/04/02 07:18:25;;;;;;;2.95;1.40;;;1.50;99.90;;;;;;5083604;28;20040;-82
2022/04/02 07:20:52;;;;;;;3.75;1.60;;;1.10;99.90;;;;;;5082543;28;20527;-75
2022/04/02 07:23:18;;;;;;;118.72;71.65;;;1.60;99.90;;;;;;5080540;28;20068;-77
2022/04/02 07:25:45;;;;;;;9.98;3.17;;;;;;;;;;5080126;28;20051;-79
2022/04/02 07:28:11;;;;;;;5.90;2.15;;;1.80;99.90;;;;;;5087871;28;20135;-86
2022/04/02 07:30:38;;;;;;;4.60;1.58;;;1.50;99.90;;;;;;5092398;28;20131;-87
2022/04/02 07:33:04;;;;;;;8.65;1.40;;;1.40;99.90;;;;;;5054265;28;20052;-86
2022/04/02 07:36:17;;;;;;;6.88;1.85;;;1.80;99.90;;;;;;5089618;28;20466;-87
2022/04/02 07:38:59;;;;;;;4.93;1.30;;;1.70;99.90;;;;;;5070838;28;20466;-87
2022/04/02 07:41:32;;;;;;;3.25;1.35;;;0.90;99.90;;;;;;5088952;28;20044;-80
2022/04/02 07:44:08;;;;;;;2.92;1.23;;;1.20;99.90;;;;;;5090755;28;20071;-83
2022/04/02 07:46:35;;;;;;;3.75;1.25;;;1.30;99.90;;;;;;5075219;28;20058;-82
2022/04/02 07:49:03;;;;;;;2.95;0.90;;;1.90;99.90;;;;;;5089056;28;20044;-83
2022/04/02 07:51:29;;;;;;;1.20;1.00;;;1.40;99.90;;;;;;5088604;28;20064;-88
2022/04/02 07:53:59;;;;;;;2.85;1.38;;;1.30;99.90;;;;;;5072329;28;20043;-86
2022/04/02 07:56:31;;;;;;;4.20;1.05;;;0.70;99.90;;;;;;5102035;28;20066;-87
2022/04/02 07:59:03;;;;;;;7.88;4.15;;;1.50;99.90;;;;;;5073757;28;20351;-75
2022/04/02 08:01:29;;;;;;;8.35;4.50;;;1.40;99.90;;;;;;5098109;28;20647;-77
2022/04/02 08:03:55;;;;;;;1.70;0.90;;;1.50;99.90;;;;;;5099450;28;20044;-86
2022/04/02 08:06:22;;;;;;;1.95;1.00;;;1.50;99.90;;;;;;5074046;28;20055;-86
2022/04/02 08:08:48;;;;;;;1.85;0.93;;;2.40;99.90;;;;;;5090841;28;20050;-88
2022/04/02 08:11:16;;;;;;;1.77;1.10;;;1.60;99.90;;;;;;5087701;28;20074;-87
2022/04/02 08:13:43;;;;;;;2.08;0.88;;;1.40;99.90;;;;;;5087750;28;20055;-77
2022/04/02 08:16:10;;;;;;;2.97;1.05;;;1.70;99.90;;;;;;5091242;28;20526;-87
2022/04/02 08:18:39;;;;;;;3.67;0.88;;;1.80;99.90;;;;;;5091867;28;20050;-88
2022/04/02 08:21:05;;;;;;;3.03;1.20;;;;;;;;;;5070983;28;20411;-85
2022/04/02 08:23:30;;;;;;;3.58;1.05;;;2.00;99.90;;;;;;5097783;28;20040;-85
2022/04/02 08:26:06;;;;;;;2.50;0.75;;;1.60;99.90;;;;;;5089208;28;20133;-88
2022/04/02 08:28:59;;;;;;;1.13;0.40;;;2.20;99.90;;;;;;5090589;28;20066;-76
2022/04/02 08:31:46;;;;;;;3.47;0.98;;;2.30;99.90;;;;;;5064410;28;20269;-77
2022/04/02 08:34:44;;;;;;;1.77;1.10;;;2.40;99.90;;;;;;5096826;28;20135;-81
2022/04/02 08:37:15;;;;;;;1.80;0.65;;;2.50;99.90;;;;;;5073280;28;20040;-75
2022/04/02 08:39:57;;;;;;;3.13;0.77;;;2.50;99.90;;;;;;5101251;28;20035;-85
2022/04/02 08:42:43;;;;;;;1.80;1.00;;;2.70;99.90;;;;;;5079582;28;20039;-84
2022/04/02 08:45:13;;;;;;;3.28;0.75;;;2.70;99.90;;;;;;5099979;28;20111;-84
2022/04/02 08:47:59;;;;;;;1.20;0.47;;;2.50;99.90;;;;;;5074369;28;20039;-86
2022/04/02 08:50:34;;;;;;;2.22;0.80;;;2.70;99.90;;;;;;5026167;28;20050;-82
2022/04/02 08:53:19;;;;;;;1.30;0.68;;;3.00;99.90;;;;;;5055997;28;20055;-82
2022/04/02 08:55:54;;;;;;;3.28;1.42;;;3.00;99.90;;;;;;5087065;28;20036;-83
2022/04/02 08:58:38;;;;;;;1.88;0.88;;;2.40;99.90;;;;;;5097382;28;20068;-82
2022/04/02 09:01:09;;;;;;;2.28;0.88;;;3.00;99.90;;;;;;5084072;28;20040;-77
2022/04/02 09:03:56;;;;;;;2.75;0.80;;;3.10;99.90;;;;;;5090204;28;20097;-85
2022/04/02 09:07:05;;;;;;;5.40;0.85;;;3.10;99.90;;;;;;5080062;28;20036;-77
2022/04/02 09:09:51;;;;;;;4.95;0.68;;;3.10;99.90;;;;;;5080382;28;20137;-75
2022/04/02 09:12:51;;;;;;;7.22;0.98;;;3.60;99.90;;;;;;5042910;28;20652;-77
2022/04/02 09:15:39;;;;;;;6.50;0.85;;;3.30;99.90;;;;;;5074154;28;20127;-82
2022/04/02 09:18:34;;;;;;;2.00;0.50;;;3.50;99.90;;;;;;5087653;28;20104;-78
2022/04/02 09:21:29;;;;;;;3.42;1.60;;;3.50;99.90;;;;;;5087881;28;20110;-86
2022/04/02 09:24:02;;;;;;;;;;;3.70;99.90;;;;;;5098963;28;20395;-85
2022/04/02 09:26:33;;;;;;;5.93;0.93;;;3.40;99.90;;;;;;5070469;28;19975;-86
2022/04/02 09:29:26;;;;;;;2.92;0.60;;;3.60;99.90;;;;;;5061428;28;20058;-79
2022/04/02 09:32:14;;;;;;;4.10;0.73;;;3.90;99.90;;;;;;5060911;28;20044;-81
2022/04/02 09:34:54;;;;;;;2.92;1.10;;;4.00;99.90;;;;;;5058886;28;20378;-86
2022/04/02 09:37:57;;;;;;;1.63;0.70;;;3.40;99.90;;;;;;5058547;28;20033;-85
2022/04/02 09:40:52;;;;;;;3.70;0.82;;;4.00;99.90;;;;;;5058719;28;20118;-76
2022/04/02 09:43:31;;;;;;;4.32;0.52;;;4.00;99.90;;;;;;5077347;28;20048;-76
2022/04/02 09:46:11;;;;;;;6.57;1.40;;;4.10;99.90;;;;;;5060855;28;20067;-81
2022/04/02 09:48:54;;;;;;;4.60;3.33;;;4.30;99.90;;;;;;5058540;28;20086;-85
2022/04/02 09:51:25;;;;;;;1.98;1.23;;;4.70;99.90;;;;;;5081949;28;20435;-76
2022/04/02 09:54:27;;;;;;;1.38;0.80;;;4.40;99.90;;;;;;5067356;28;20553;-75
2022/04/02 09:57:20;;;;;;;3.40;0.82;;;4.40;99.90;;;;;;5078965;28;20465;-83
2022/04/02 09:59:57;;;;;;;4.15;0.70;;;4.40;99.90;;;;;;5078303;28;20036;-79
2022/04/02 10:02:33;;;;;;;5.97;0.70;;;4.30;99.90;;;;;;5062129;28;20041;-84
2022/04/02 10:05:07;;;;;;;2.70;0.80;;;4.40;99.90;;;;;;5062020;28;20037;-86
2022/04/02 10:07:33;;;;;;;;;;;3.80;99.90;;;;;;5065702;28;20085;-75
2022/04/02 10:10:01;;;;;;;1.42;0.52;;;3.90;99.90;;;;;;5081550;28;20356;-81
2022/04/02 10:12:28;;;;;;;3.22;0.75;;;4.20;99.90;;;;;;5061906;28;20044;-86
2022/04/02 10:14:57;;;;;;;2.10;1.00;;;3.90;99.90;;;;;;5077932;28;20057;-79
2022/04/02 10:17:31;;;;;;;1.60;1.42;;;3.90;99.90;;;;;;5082319;28;20040;-83
2022/04/02 10:19:58;;;;;;;3.60;1.30;;;6.70;99.90;;;;;;5081551;28;20039;-81
2022/04/02 10:22:42;;;;;;;5.45;1.17;;;4.10;99.90;;;;;;5073361;28;20044;-77
2022/04/02 10:25:10;;;;;;;1.77;0.63;;;4.80;99.90;;;;;;5063311;28;20508;-83
2022/04/02 10:27:42;;;;;;;6.00;0.90;;;5.80;99.90;;;;;;5081858;28;20091;-82
2022/04/02 10:30:12;;;;;;;6.35;0.80;;;4.60;99.90;;;;;;5065212;28;20048;-78
2022/04/02 10:32:57;;;;;;;3.95;1.00;;;5.20;99.90;;;;;;5084345;28;20043;-87
2022/04/02 10:35:27;;;;;;;1.20;0.63;;;5.30;99.90;;;;;;5081739;28;20040;-86
2022/04/02 10:38:04;;;;;;;1.92;0.60;;;6.40;99.90;;;;;;5081460;28;20032;-82
2022/04/02 10:40:32;;;;;;;3.22;0.90;;;5.60;99.90;;;;;;5065048;28;20035;-83
2022/04/02 10:43:06;;;;;;;2.60;0.65;;;5.20;99.90;;;;;;5063621;28;20036;-76
2022/04/02 10:45:36;;;;;;;3.30;1.02;;;4.60;99.90;;;;;;5099998;28;20411;-82
2022/04/02 10:48:13;;;;;;;2.67;0.73;;;6.90;99.90;;;;;;5080690;28;20040;-77
2022/04/02 10:50:40;;;;;;;3.95;0.90;;;4.40;99.90;;;;;;5081155;28;20051;-76
2022/04/02 10:53:11;;;;;;;1.83;0.52;;;4.70;99.90;;;;;;5072305;28;20027;-87
2022/04/02 10:55:47;;;;;;;1.88;0.68;;;6.80;99.90;;;;;;5047768;28;20498;-81
2022/04/02 10:58:19;;;;;;;3.03;0.80;;;5.00;99.90;;;;;;5082187;28;20044;-90
2022/04/02 11:00:45;;;;;;;2.45;0.60;;;5.00;99.90;;;;;;5050787;28;20039;-75
2022/04/02 11:03:25;;;;;;;4.55;1.38;;;4.60;99.90;;;;;;5082312;28;20032;-87
2022/04/02 11:05:53;;;;;;;4.28;0.80;;;4.50;99.90;;;;;;5081333;28;20165;-87
2022/04/02 11:08:23;;;;;;;3.35;0.40;;;4.80;99.90;;;;;;5083240;28;20360;-82
2022/04/02 11:10:49;;;;;;;4.65;0.68;;;4.30;99.90;;;;;;5050770;28;20046;-79
2022/04/02 11:13:29;;;;;;;4.90;0.68;;;4.80;99.90;;;;;;5082501;28;20044;-76
2022/04/02 11:15:56;;;;;;;1.95;0.77;;;4.90;99.90;;;;;;5080694;28;20079;-85
2022/04/02 11:18:22;;;;;;;3.30;0.80;;;5.70;99.90;;;;;;5066815;28;20051;-79
2022/04/02 11:20:48;;;;;;;2.95;0.95;;;4.60;99.90;;;;;;5067548;28;20031;-85
2022/04/02 11:23:19;;;;;;;7.03;1.25;;;4.40;99.90;;;;;;5082425;28;20050;-79
2022/04/02 11:25:48;;;;;;;3.63;0.70;;;4.80;99.90;;;;;;5080856;28;20036;-83
2022/04/02 11:28:20;;;;;;;5.13;0.88;;;4.90;99.90;;;;;;5069072;28;20067;-82
2022/04/02 11:30:51;;;;;;;5.45;0.60;;;4.90;99.90;;;;;;5077592;28;20500;-81
2022/04/02 11:33:25;;;;;;;5.38;0.60;;;6.00;99.90;;;;;;5064953;28;20426;-76
2022/04/02 11:35:53;;;;;;;1.52;0.57;;;4.50;99.90;;;;;;5064000;28;20574;-82
2022/04/02 11:38:22;;;;;;;3.72;0.40;;;4.30;99.90;;;;;;5078655;28;20033;-84
2022/04/02 11:40:55;;;;;;;3.42;0.85;;;4.40;99.90;;;;;;5076819;28;20400;-83
2022/04/02 11:43:32;;;;;;;4.97;0.70;;;4.40;99.90;;;;;;5078951;28;20131;-89
2022/04/02 11:46:00;;;;;;;5.03;0.75;;;4.50;99.90;;;;;;5054701;28;20036;-88
2022/04/02 11:48:31;;;;;;;2.58;0.30;;;6.10;99.90;;;;;;5055766;28;20044;-89
2022/04/02 11:51:10;;;;;;;1.05;0.40;;;4.40;99.90;;;;;;5084077;28;20032;-75
2022/04/02 11:53:38;;;;;;;3.80;0.70;;;4.80;99.90;;;;;;5084546;28;20793;-85
2022/04/02 11:56:25;;;;;;;1.50;1.17;;;4.70;99.90;;;;;;5038785;28;20047;-75
2022/04/02 11:58:51;;;;;;;4.13;1.50;;;5.00;99.90;;;;;;5079063;28;20044;-81
2022/04/02 12:01:20;;;;;;;3.08;0.57;;;5.10;99.90;;;;;;5077358;28;20033;-74
2022/04/02 12:04:13;;;;;;;1.80;0.50;;;5.10;99.90;;;;;;5062936;28;20040;-87
2022/04/02 12:06:40;;;;;;;2.10;0.95;;;5.10;99.90;;;;;;5076183;28;20036;-80
2022/04/02 12:09:20;;;;;;;5.05;0.88;;;5.00;99.90;;;;;;5076513;28;20075;-78
2022/04/02 12:12:06;;;;;;;1.60;0.57;;;5.10;99.90;;;;;;5075076;28;20036;-77
2022/04/02 12:14:41;;;;;;;1.33;0.80;;;5.10;99.90;;;;;;5079013;28;20052;-77
2022/04/02 12:17:11;;;;;;;4.00;0.40;;;5.40;99.90;;;;;;5062894;28;20036;-86
2022/04/02 12:19:39;;;;;;;1.48;0.52;;;5.10;99.90;;;;;;5076196;28;20044;-87
2022/04/02 12:22:33;;;;;;;1.75;1.02;;;5.20;99.90;;;;;;5076747;28;20459;-87
2022/04/02 12:25:13;;;;;;;4.03;1.10;;;5.10;99.90;;;;;;5058844;28;20087;-81
2022/04/02 12:27:39;;;;;;;2.85;0.95;;;5.10;99.90;;;;;;5070783;28;20044;-80
2022/04/02 12:30:08;;;;;;;4.95;0.60;;;5.10;99.90;;;;;;5088755;28;20044;-83
2022/04/02 12:32:40;;;;;;;4.15;0.70;;;5.30;99.90;;;;;;5086798;28;20082;-80
2022/04/02 12:35:24;;;;;;;4.10;0.98;;;5.40;99.90;;;;;;5070509;28;20327;-82
2022/04/02 12:37:52;;;;;;;0.90;0.50;;;5.40;99.90;;;;;;5071165;28;20032;-83
2022/04/02 12:40:19;;;;;;;1.85;0.47;;;5.40;99.90;;;;;;5088444;28;20036;-76
2022/04/02 12:42:46;;;;;;;1.50;0.52;;;5.40;99.90;;;;;;5070416;28;20054;-74
2022/04/02 12:45:14;;;;;;;3.05;0.68;;;6.50;99.70;;;;;;5088923;28;20036;-76
2022/04/02 12:47:41;;;;;;;3.97;0.85;;;7.10;99.90;;;;;;5078906;28;20047;-75
2022/04/02 12:50:14;;;;;;;2.17;0.93;;;5.30;99.90;;;;;;5088010;28;20587;-76
2022/04/02 12:52:44;;;;;;;1.20;0.47;;;5.40;99.90;;;;;;5079983;28;20598;-84
2022/04/02 12:55:26;;;;;;;3.63;0.60;;;5.50;99.90;;;;;;5087845;28;20050;-81
2022/04/02 12:58:05;;;;;;;4.43;0.80;;;5.60;99.80;;;;;;5081433;28;20047;-81
2022/04/02 13:00:38;;;;;;;1.15;0.30;;;5.80;99.50;;;;;;5086979;28;20036;-83
2022/04/02 13:03:05;;;;;;;2.42;0.30;;;5.90;98.50;;;;;;5086868;28;20043;-76
2022/04/02 13:05:51;;;;;;;1.42;0.65;;;5.90;97.90;;;;;;5087599;28;20128;-84
2022/04/02 13:08:17;;;;;;;3.25;0.90;;;6.00;97.10;;;;;;5086709;28;20193;-85
2022/04/02 13:10:44;;;;;;;1.65;0.50;;;6.00;97.50;;;;;;5070717;28;20488;-75
2022/04/02 13:13:13;;;;;;;2.70;0.40;;;6.00;97.50;;;;;;5088286;28;20048;-72
2022/04/02 13:15:39;;;;;;;2.10;0.50;;;6.00;96.40;;;;;;5088279;28;20494;-74
2022/04/02 13:20:58;;;;;;;1.38;0.35;;;6.40;95.70;;;;;;5080951;28;20044;-72
2022/04/02 13:23:48;;;;;;;3.28;1.00;;;6.40;95.50;;;;;;5088376;28;20638;-75
2022/04/02 13:26:18;;;;;;;4.00;0.70;;;6.40;95.30;;;;;;5087807;28;20127;-86